Time;durP1;ratioP1;P1;durP2;ratioP2;P2;SDS_P1;SDS_P2;PMS_P1;PMS_P2;Temp;Humidity;BMP_temperature;BMP_pressure;BME280_temperature;BME280_humidity;BME280_pressure;Samples;Min_cycle;Max_cycle;Signal;HPM_P1;HPM_P2
2021/10/06 00:01:50;;;;;;;;;;;;;;;14.75;65.60;99853.34;6895397;20;17953;-45
2021/10/06 00:04:19;;;;;;;;;;;;;;;14.61;66.21;99847.16;6892606;20;18242;-45
2021/10/06 00:06:47;;;;;;;;;;;;;;;14.37;66.93;99851.63;6894437;20;18758;-47
2021/10/06 00:09:15;;;;;;;;;;;;;;;14.52;66.53;99861.28;6894897;20;7534;-47
2021/10/06 00:11:43;;;;;;;;;;;;;;;14.54;67.40;99863.94;6897712;20;7522;-46
2021/10/06 00:14:11;;;;;;;;;;;;;;;14.30;67.60;99863.88;6896881;20;19441;-45
2021/10/06 00:16:39;;;;;;;;;;;;;;;14.34;68.11;99871.63;6896480;20;7549;-45
2021/10/06 00:19:07;;;;;;;;;;;;;;;14.16;68.09;99865.75;6893098;20;7657;-46
2021/10/06 00:21:35;;;;;;;;;;;;;;;14.31;68.11;99863.75;6897506;20;7663;-45
2021/10/06 00:24:03;;;;;;;;;;;;;;;14.10;68.35;99860.81;6895285;20;18958;-45
2021/10/06 00:26:31;;;;;;;;;;;;;;;14.09;68.25;99859.09;6896948;20;7570;-44
2021/10/06 00:28:59;;;;;;;;;;;;;;;14.33;67.92;99858.25;6893365;20;7664;-45
2021/10/06 00:31:26;;;;;;;;;;;;;;;14.33;67.82;99853.72;6893515;20;17643;-44
2021/10/06 00:33:54;;;;;;;;;;;;;;;14.26;68.61;99855.13;6894443;20;17874;-45
2021/10/06 00:36:22;;;;;;;;;;;;;;;14.10;68.61;99860.81;6894551;20;18298;-45
2021/10/06 00:38:49;;;;;;;;;;;;;;;14.24;68.60;99860.66;6894344;20;7526;-45
2021/10/06 00:41:17;;;;;;;;;;;;;;;14.39;68.58;99863.19;6893573;20;18166;-45
2021/10/06 00:43:44;;;;;;;;;;;;;;;14.09;69.54;99863.63;6896382;20;7534;-46
2021/10/06 00:46:12;;;;;;;;;;;;;;;14.18;69.45;99852.16;6895998;20;19320;-44
2021/10/06 00:48:39;;;;;;;;;;;;;;;14.06;69.71;99853.94;6893677;20;18317;-45
2021/10/06 00:51:07;;;;;;;;;;;;;;;13.92;70.77;99840.56;6895560;20;15277;-48
2021/10/06 00:53:34;;;;;;;;;;;;;;;13.82;70.91;99843.06;6894911;20;7549;-47
2021/10/06 00:56:02;;;;;;;;;;;;;;;13.87;70.48;99840.03;6895325;20;7720;-49
2021/10/06 00:58:29;;;;;;;;;;;;;;;13.89;70.76;99830.84;6889604;20;8039;-49
2021/10/06 01:00:57;;;;;;;;;;;;;;;13.86;71.67;99841.00;6894797;20;17900;-46
2021/10/06 01:03:25;;;;;;;;;;;;;;;14.06;71.02;99840.44;6891276;20;7545;-47
2021/10/06 01:05:53;;;;;;;;;;;;;;;13.87;71.85;99835.50;6893021;20;17707;-45
2021/10/06 01:08:21;;;;;;;;;;;;;;;13.63;72.54;99832.72;6890326;20;18379;-48
2021/10/06 01:10:49;;;;;;;;;;;;;;;14.01;71.35;99834.50;6890637;20;19193;-45
2021/10/06 01:13:16;;;;;;;;;;;;;;;13.67;72.66;99839.66;6892223;20;7552;-49
2021/10/06 01:15:45;;;;;;;;;;;;;;;13.57;72.50;99828.66;6892313;20;18986;-47
2021/10/06 01:18:12;;;;;;;;;;;;;;;13.29;73.34;99827.03;6894300;20;7658;-49
2021/10/06 01:20:40;;;;;;;;;;;;;;;13.50;73.27;99830.03;6894489;20;7540;-45
2021/10/06 01:23:08;;;;;;;;;;;;;;;13.35;73.62;99836.56;6894914;20;7553;-44
2021/10/06 01:25:35;;;;;;;;;;;;;;;13.23;74.19;99834.69;6890992;20;18515;-45
2021/10/06 01:28:03;;;;;;;;;;;;;;;13.27;73.46;99830.81;6892904;20;10553;-45
2021/10/06 01:30:31;;;;;;;;;;;;;;;13.39;73.40;99832.66;6892941;20;17828;-44
2021/10/06 01:32:58;;;;;;;;;;;;;;;13.23;73.23;99826.59;6893857;20;8488;-44
2021/10/06 01:35:26;;;;;;;;;;;;;;;13.42;73.53;99820.78;6892236;20;19515;-46
2021/10/06 01:37:54;;;;;;;;;;;;;;;13.09;73.23;99824.88;6891154;20;19006;-45
2021/10/06 01:40:23;;;;;;;;;;;;;;;13.20;73.27;99826.81;6894465;20;7541;-45
2021/10/06 01:42:53;;;;;;;;;;;;;;;13.19;73.45;99812.44;6893232;20;7537;-45
2021/10/06 01:45:27;;;;;;;;;;;;;;;13.15;73.64;99813.66;6891843;20;7518;-45
2021/10/06 01:48:08;;;;;;;;;;;;;;;13.26;73.32;99813.78;6892751;20;17756;-44
2021/10/06 01:50:41;;;;;;;;;;;;;;;13.00;74.01;99812.03;6893411;20;7526;-45
2021/10/06 01:53:13;;;;;;;;;;;;;;;13.05;74.21;99807.19;6894433;20;7522;-44
2021/10/06 01:55:42;;;;;;;;;;;;;;;13.18;73.56;99806.19;6892096;20;7507;-44
2021/10/06 01:58:16;;;;;;;;;;;;;;;13.08;73.13;99812.34;6891061;20;7546;-45
2021/10/06 02:00:48;;;;;;;;;;;;;;;12.96;73.03;99809.53;6892791;20;19180;-44
2021/10/06 02:03:16;;;;;;;;;;;;;;;12.89;73.67;99813.63;6894478;20;7573;-44
2021/10/06 02:05:44;;;;;;;;;;;;;;;13.26;72.73;99813.78;6888599;20;7631;-44
2021/10/06 02:08:16;;;;;;;;;;;;;;;13.17;72.60;99817.09;6892714;20;8222;-45
2021/10/06 02:10:45;;;;;;;;;;;;;;;13.09;72.73;99811.41;6893311;20;18803;-44
2021/10/06 02:13:13;;;;;;;;;;;;;;;13.00;72.93;99812.88;6892282;20;19358;-44
2021/10/06 02:15:41;;;;;;;;;;;;;;;13.05;72.63;99826.03;6892358;20;7983;-45
2021/10/06 02:18:10;;;;;;;;;;;;;;;13.29;72.32;99820.78;6891769;20;7538;-45
2021/10/06 02:20:37;;;;;;;;;;;;;;;12.94;72.76;99814.16;6891582;20;19417;-45
2021/10/06 02:23:05;;;;;;;;;;;;;;;13.00;72.66;99820.09;6891683;20;19128;-45
2021/10/06 02:25:33;;;;;;;;;;;;;;;13.19;72.27;99831.31;6891344;20;7709;-46
2021/10/06 02:28:01;;;;;;;;;;;;;;;12.88;72.35;99822.69;6892461;20;7615;-44
2021/10/06 02:30:28;;;;;;;;;;;;;;;12.95;73.51;99813.22;6891986;20;7534;-45
2021/10/06 02:32:56;;;;;;;;;;;;;;;13.28;71.66;99824.47;6891366;20;19100;-44
2021/10/06 02:35:24;;;;;;;;;;;;;;;13.12;72.65;99816.56;6892193;20;7534;-45
2021/10/06 02:37:52;;;;;;;;;;;;;;;12.94;72.80;99822.25;6887972;20;15280;-46
2021/10/06 02:40:20;;;;;;;;;;;;;;;12.90;72.62;99823.44;6892294;20;7580;-45
2021/10/06 02:42:49;;;;;;;;;;;;;;;13.05;72.50;99831.44;6891535;20;11168;-44
2021/10/06 02:45:18;;;;;;;;;;;;;;;12.96;72.37;99831.09;6888363;20;18438;-44
2021/10/06 02:47:47;;;;;;;;;;;;;;;12.68;72.58;99831.25;6890118;20;17352;-45
2021/10/06 02:50:22;;;;;;;;;;;;;;;12.81;73.05;99834.84;6893682;20;9114;-45
2021/10/06 02:52:51;;;;;;;;;;;;;;;12.85;72.93;99833.69;6891447;20;7538;-45
2021/10/06 02:55:19;;;;;;;;;;;;;;;12.77;73.59;99835.16;6891774;20;7514;-44
2021/10/06 02:57:46;;;;;;;;;;;;;;;12.84;73.24;99837.31;6889193;20;7526;-45
2021/10/06 03:00:15;;;;;;;;;;;;;;;12.61;72.88;99844.31;6891820;20;16170;-45
2021/10/06 03:02:42;;;;;;;;;;;;;;;12.77;73.28;99846.81;6892125;20;7522;-44
2021/10/06 03:05:12;;;;;;;;;;;;;;;12.71;72.20;99839.13;6889468;20;17217;-45
2021/10/06 03:07:40;;;;;;;;;;;;;;;12.77;72.20;99846.81;6889772;20;18794;-45
2021/10/06 03:10:10;;;;;;;;;;;;;;;13.03;72.19;99841.44;6891739;20;7522;-45
2021/10/06 03:12:39;;;;;;;;;;;;;;;12.81;72.03;99848.31;6894204;20;7996;-46
2021/10/06 03:15:09;;;;;;;;;;;;;;;12.91;71.95;99849.41;6890712;20;18925;-45
2021/10/06 03:17:36;;;;;;;;;;;;;;;12.80;71.90;99845.75;6890782;20;7530;-46
2021/10/06 03:20:06;;;;;;;;;;;;;;;12.65;72.10;99848.50;6891309;20;20347;-45
2021/10/06 03:22:35;;;;;;;;;;;;;;;12.70;72.27;99850.88;6889689;20;17273;-45
2021/10/06 03:25:05;;;;;;;;;;;;;;;12.77;71.88;99846.81;6891466;20;18824;-44
2021/10/06 03:27:33;;;;;;;;;;;;;;;12.58;73.90;99840.94;6892231;20;7695;-45
2021/10/06 03:30:02;;;;;;;;;;;;;;;12.81;74.93;99845.63;6892770;20;18912;-47
2021/10/06 03:32:30;;;;;;;;;;;;;;;12.79;75.43;99847.56;6894544;20;7522;-47
2021/10/06 03:34:57;;;;;;;;;;;;;;;12.67;76.46;99845.72;6895237;20;18347;-48
2021/10/06 03:37:24;;;;;;;;;;;;;;;12.63;74.42;99845.03;6895760;20;18393;-44
2021/10/06 03:39:52;;;;;;;;;;;;;;;12.55;75.04;99838.44;6898200;20;7976;-45
2021/10/06 03:42:19;;;;;;;;;;;;;;;12.50;75.11;99834.22;6897373;20;7643;-47
2021/10/06 03:44:47;;;;;;;;;;;;;;;12.48;75.03;99840.69;6896583;20;7526;-45
2021/10/06 03:47:15;;;;;;;;;;;;;;;12.40;74.62;99846.59;6893513;20;7536;-46
2021/10/06 03:49:42;;;;;;;;;;;;;;;12.78;73.79;99851.22;6897050;20;18529;-44
2021/10/06 03:52:10;;;;;;;;;;;;;;;12.90;73.20;99846.81;6896992;20;7618;-44
2021/10/06 03:54:37;;;;;;;;;;;;;;;12.48;73.35;99849.66;6895520;20;18962;-48
2021/10/06 03:57:05;;;;;;;;;;;;;;;12.89;73.79;99845.09;6896879;20;7637;-45
2021/10/06 03:59:32;;;;;;;;;;;;;;;12.60;73.08;99849.78;6895044;20;19245;-45
2021/10/06 04:02:00;;;;;;;;;;;;;;;12.83;73.79;99846.41;6897860;20;7602;-46
2021/10/06 04:04:27;;;;;;;;;;;;;;;12.79;72.56;99842.16;6895827;20;7518;-45
2021/10/06 04:06:55;;;;;;;;;;;;;;;12.78;73.27;99851.22;6898368;20;7522;-45
2021/10/06 04:09:22;;;;;;;;;;;;;;;12.70;73.54;99853.59;6897170;20;7526;-44
2021/10/06 04:11:50;;;;;;;;;;;;;;;12.49;73.05;99842.44;6897401;20;7526;-45
2021/10/06 04:14:17;;;;;;;;;;;;;;;12.52;73.61;99843.06;6894374;20;7589;-44
2021/10/06 04:16:45;;;;;;;;;;;;;;;12.47;75.73;99845.22;6895815;20;7557;-44
2021/10/06 04:19:12;;;;;;;;;;;;;;;12.44;77.50;99840.03;6891951;20;7569;-44
2021/10/06 04:21:40;;;;;;;;;;;;;;;12.35;77.62;99846.03;6896040;20;7514;-44
2021/10/06 04:24:08;;;;;;;;;;;;;;;12.22;79.08;99843.28;6896140;20;16439;-47
2021/10/06 04:26:35;;;;;;;;;;;;;;;12.33;79.12;99847.13;6895357;20;18836;-47
2021/10/06 04:29:03;;;;;;;;;;;;;;;12.17;79.60;99847.25;6891031;20;13676;-45
2021/10/06 04:31:31;;;;;;;;;;;;;;;12.38;79.79;99839.59;6892973;20;7708;-47
2021/10/06 04:33:58;;;;;;;;;;;;;;;12.36;80.19;99842.38;6894039;20;7581;-45
2021/10/06 04:36:26;;;;;;;;;;;;;;;11.99;79.94;99839.41;6894477;20;7530;-47
2021/10/06 04:38:54;;;;;;;;;;;;;;;12.26;80.70;99850.19;6893381;20;19371;-44
2021/10/06 04:41:21;;;;;;;;;;;;;;;12.33;81.14;99853.34;6894281;20;7522;-46
2021/10/06 04:43:49;;;;;;;;;;;;;;;11.98;82.05;99848.47;6894937;20;8089;-46
2021/10/06 04:46:18;;;;;;;;;;;;;;;12.03;82.04;99851.72;6891477;20;19389;-44
2021/10/06 04:48:47;;;;;;;;;;;;;;;12.03;81.76;99845.44;6893918;20;7541;-45
2021/10/06 04:51:15;;;;;;;;;;;;;;;12.06;82.12;99846.13;6893270;20;7538;-45
2021/10/06 04:53:42;;;;;;;;;;;;;;;12.15;84.62;99851.88;6893914;20;20035;-45
2021/10/06 04:56:10;;;;;;;;;;;;;;;11.97;86.42;99845.84;6894066;20;18617;-45
2021/10/06 04:58:37;;;;;;;;;;;;;;;11.83;85.77;99847.56;6892370;20;19455;-45
2021/10/06 05:01:05;;;;;;;;;;;;;;;11.81;86.35;99843.25;6892225;20;17275;-44
2021/10/06 05:03:33;;;;;;;;;;;;;;;11.84;86.95;99840.38;6893957;20;18581;-44
2021/10/06 05:06:00;;;;;;;;;;;;;;;11.58;89.54;99834.81;6893089;20;18669;-44
2021/10/06 05:08:28;;;;;;;;;;;;;;;11.52;91.68;99828.97;6893688;20;7699;-46
2021/10/06 05:10:55;;;;;;;;;;;;;;;11.44;90.25;99834.84;6893909;20;7529;-45
2021/10/06 05:13:23;;;;;;;;;;;;;;;11.46;92.57;99830.22;6894697;20;13055;-46
2021/10/06 05:15:51;;;;;;;;;;;;;;;11.37;90.71;99830.78;6894480;20;14924;-43
2021/10/06 05:18:18;;;;;;;;;;;;;;;11.30;90.37;99829.47;6891124;20;7589;-44
2021/10/06 05:20:46;;;;;;;;;;;;;;;11.46;91.36;99830.22;6893426;20;18313;-45
2021/10/06 05:23:13;;;;;;;;;;;;;;;11.50;91.36;99826.38;6890992;20;7577;-45
2021/10/06 05:25:42;;;;;;;;;;;;;;;11.38;91.48;99835.22;6892302;20;16893;-44
2021/10/06 05:28:09;;;;;;;;;;;;;;;11.59;91.52;99833.88;6892076;20;7510;-46
2021/10/06 05:30:37;;;;;;;;;;;;;;;11.56;92.44;99831.38;6894036;20;8144;-44
2021/10/06 05:33:04;;;;;;;;;;;;;;;11.82;91.15;99847.66;6892149;20;19527;-44
2021/10/06 05:35:32;;;;;;;;;;;;;;;11.74;90.42;99844.59;6892728;20;16807;-45
2021/10/06 05:38:03;;;;;;;;;;;;;;;11.55;89.95;99845.78;6891987;20;7643;-44
2021/10/06 05:40:31;;;;;;;;;;;;;;;11.70;89.14;99845.78;6892393;20;16500;-44
2021/10/06 05:42:59;;;;;;;;;;;;;;;11.83;88.78;99850.28;6894034;20;7530;-45
2021/10/06 05:45:26;;;;;;;;;;;;;;;11.78;89.05;99860.47;6893286;20;19047;-46
2021/10/06 05:47:54;;;;;;;;;;;;;;;12.04;87.99;99858.81;6891361;20;7532;-45
2021/10/06 05:50:21;;;;;;;;;;;;;;;11.82;88.20;99861.13;6892721;20;18583;-45
2021/10/06 05:52:49;;;;;;;;;;;;;;;11.85;89.21;99848.34;6893330;20;7518;-44
2021/10/06 05:55:16;;;;;;;;;;;;;;;11.77;87.42;99847.09;6893078;20;19499;-44
2021/10/06 05:57:44;;;;;;;;;;;;;;;12.06;87.48;99862.28;6892310;20;19306;-49
2021/10/06 06:00:12;;;;;;;;;;;;;;;11.93;87.24;99855.06;6891193;20;18794;-47
2021/10/06 06:02:46;;;;;;;;;;;;;;;12.05;85.77;99865.06;6891861;20;18050;-46
2021/10/06 06:05:14;;;;;;;;;;;;;;;12.23;85.99;99879.16;6893550;20;7537;-46
2021/10/06 06:07:42;;;;;;;;;;;;;;;12.14;85.25;99863.59;6893023;20;19055;-45
2021/10/06 06:10:12;;;;;;;;;;;;;;;12.03;84.21;99865.19;6890445;20;18232;-46
2021/10/06 06:12:42;;;;;;;;;;;;;;;12.03;84.23;99869.66;6893818;20;7522;-45
2021/10/06 06:15:11;;;;;;;;;;;;;;;12.19;83.57;99872.22;6892613;20;20191;-43
2021/10/06 06:17:39;;;;;;;;;;;;;;;11.97;83.53;99873.63;6891865;20;7514;-44
2021/10/06 06:20:14;;;;;;;;;;;;;;;12.22;83.04;99877.44;6892349;20;7601;-43
2021/10/06 06:22:42;;;;;;;;;;;;;;;12.16;83.67;99880.50;6892981;20;7572;-43
2021/10/06 06:25:11;;;;;;;;;;;;;;;12.20;82.86;99887.44;6891491;20;7514;-44
2021/10/06 06:27:38;;;;;;;;;;;;;;;12.12;83.33;99881.69;6891812;20;7541;-44
2021/10/06 06:30:09;;;;;;;;;;;;;;;12.46;83.32;99889.28;6893026;20;16000;-46
2021/10/06 06:32:36;;;;;;;;;;;;;;;12.49;83.61;99891.75;6893721;20;7534;-44
2021/10/06 06:35:05;;;;;;;;;;;;;;;12.47;81.54;99891.00;6889197;20;7552;-44
2021/10/06 06:37:34;;;;;;;;;;;;;;;12.56;80.82;99894.94;6889910;20;18877;-43
2021/10/06 06:40:03;;;;;;;;;;;;;;;12.41;80.69;99894.09;6893583;20;7980;-44
2021/10/06 06:42:30;;;;;;;;;;;;;;;12.46;81.37;99900.06;6892732;20;16476;-44
2021/10/06 06:44:58;;;;;;;;;;;;;;;12.30;80.39;99907.41;6891142;20;18208;-44
2021/10/06 06:47:26;;;;;;;;;;;;;;;12.21;81.20;99903.47;6891422;20;19027;-43
2021/10/06 06:49:54;;;;;;;;;;;;;;;12.20;82.29;99906.28;6892069;20;18833;-44
2021/10/06 06:52:22;;;;;;;;;;;;;;;12.19;85.17;99910.81;6892963;20;18337;-43
2021/10/06 06:54:49;;;;;;;;;;;;;;;12.18;85.83;99911.75;6888636;20;18785;-45
2021/10/06 06:57:17;;;;;;;;;;;;;;;12.10;85.78;99905.13;6889530;20;7628;-43
2021/10/06 06:59:44;;;;;;;;;;;;;;;12.20;85.40;99914.34;6891810;20;8119;-43
2021/10/06 07:02:13;;;;;;;;;;;;;;;12.07;86.95;99907.06;6891254;20;7578;-43
2021/10/06 07:04:41;;;;;;;;;;;;;;;12.34;86.33;99924.22;6892719;20;7518;-42
2021/10/06 07:07:13;;;;;;;;;;;;;;;12.23;84.62;99916.84;6895472;20;7636;-42
2021/10/06 07:09:48;;;;;;;;;;;;;;;12.51;84.97;99926.69;6896784;20;11201;-42
2021/10/06 07:12:18;;;;;;;;;;;;;;;12.41;85.78;99934.50;6899142;20;7672;-44
2021/10/06 07:14:47;;;;;;;;;;;;;;;12.56;84.81;99934.44;6898444;20;7557;-44
2021/10/06 07:17:15;;;;;;;;;;;;;;;12.32;83.57;99934.22;6897720;20;17878;-45
2021/10/06 07:19:42;;;;;;;;;;;;;;;12.43;83.80;99940.66;6897546;20;7627;-44
2021/10/06 07:22:10;;;;;;;;;;;;;;;12.29;84.02;99941.53;6895448;20;7522;-44
2021/10/06 07:24:38;;;;;;;;;;;;;;;12.28;85.26;99947.88;6896244;20;18030;-43
2021/10/06 07:27:06;;;;;;;;;;;;;;;12.29;84.68;99954.13;6895768;20;20005;-44
2021/10/06 07:29:33;;;;;;;;;;;;;;;12.12;84.78;99957.91;6895812;20;18720;-44
2021/10/06 07:32:01;;;;;;;;;;;;;;;12.21;86.44;99964.53;6898159;20;7537;-44
2021/10/06 07:34:29;;;;;;;;;;;;;;;12.10;86.02;99969.72;6896330;20;18666;-45
2021/10/06 07:36:56;;;;;;;;;;;;;;;12.02;85.71;99979.16;6896058;20;16156;-43
2021/10/06 07:39:24;;;;;;;;;;;;;;;11.97;85.72;99981.25;6896239;20;15490;-44
2021/10/06 07:41:51;;;;;;;;;;;;;;;11.80;92.12;99982.28;6897215;20;18975;-44
2021/10/06 07:44:19;;;;;;;;;;;;;;;11.35;93.77;99988.66;6897648;20;18995;-46
2021/10/06 07:46:47;;;;;;;;;;;;;;;11.34;97.36;99994.97;6896051;20;18106;-44
2021/10/06 07:49:15;;;;;;;;;;;;;;;11.41;97.47;99999.03;6894701;20;18788;-44
2021/10/06 07:51:43;;;;;;;;;;;;;;;11.29;98.54;99994.38;6897371;20;8016;-44
2021/10/06 07:54:10;;;;;;;;;;;;;;;11.32;99.51;99994.19;6895776;20;18677;-44
2021/10/06 07:56:38;;;;;;;;;;;;;;;11.26;100.00;99995.44;6897520;20;7526;-46
2021/10/06 07:59:06;;;;;;;;;;;;;;;11.32;100.00;99994.19;6895380;20;7684;-48
2021/10/06 08:01:33;;;;;;;;;;;;;;;11.31;100.00;99995.16;6898139;20;7612;-48
2021/10/06 08:04:21;;;;;;;;;;;;;;;11.49;100.00;100004.81;6897046;20;7665;-48
2021/10/06 08:06:49;;;;;;;;;;;;;;;11.36;100.00;100001.13;6893788;20;7597;-46
2021/10/06 08:09:18;;;;;;;;;;;;;;;11.29;100.00;99999.75;6893978;20;19205;-44
2021/10/06 08:11:47;;;;;;;;;;;;;;;11.51;100.00;99999.34;6894724;20;18358;-48
2021/10/06 08:14:14;;;;;;;;;;;;;;;11.53;100.00;99997.41;6894148;20;20349;-45
2021/10/06 08:16:42;;;;;;;;;;;;;;;11.07;100.00;99995.66;6895588;20;7530;-48
2021/10/06 08:19:09;;;;;;;;;;;;;;;11.13;100.00;100005.16;6895256;20;7522;-45
2021/10/06 08:21:37;;;;;;;;;;;;;;;10.96;100.00;99987.38;6895626;20;18261;-44
2021/10/06 08:24:05;;;;;;;;;;;;;;;11.07;100.00;99997.47;6897973;20;7601;-45
2021/10/06 08:26:33;;;;;;;;;;;;;;;11.11;100.00;99999.91;6894341;20;7522;-43
2021/10/06 08:29:00;;;;;;;;;;;;;;;10.87;100.00;99987.88;6895411;20;18401;-45
2021/10/06 08:31:28;;;;;;;;;;;;;;;11.21;100.00;99998.38;6899394;20;7581;-44
2021/10/06 08:33:55;;;;;;;;;;;;;;;10.75;100.00;99997.53;6899885;20;20148;-44
2021/10/06 08:36:23;;;;;;;;;;;;;;;11.02;100.00;99997.75;6897367;20;19324;-43
2021/10/06 08:38:53;;;;;;;;;;;;;;;10.95;100.00;99993.69;6899033;20;7518;-44
2021/10/06 08:41:22;;;;;;;;;;;;;;;10.97;100.00;99995.31;6899158;20;10195;-42
2021/10/06 08:43:50;;;;;;;;;;;;;;;10.87;100.00;99993.25;6899368;20;7589;-45
2021/10/06 08:46:18;;;;;;;;;;;;;;;10.91;100.00;99989.44;6898263;20;7609;-43
2021/10/06 08:48:45;;;;;;;;;;;;;;;10.96;100.00;99998.97;6894856;20;18805;-44
2021/10/06 08:51:13;;;;;;;;;;;;;;;10.91;100.00;99994.81;6898774;20;18607;-44
2021/10/06 08:53:48;;;;;;;;;;;;;;;10.68;100.00;99994.31;6899409;20;7715;-47
2021/10/06 08:56:16;;;;;;;;;;;;;;;10.69;100.00;100000.53;6895884;20;16182;-43
2021/10/06 08:58:44;;;;;;;;;;;;;;;10.46;100.00;99991.13;6894306;20;19069;-43
2021/10/06 09:01:22;;;;;;;;;;;;;;;10.72;100.00;99995.88;6898524;20;18861;-43
2021/10/06 09:04:04;;;;;;;;;;;;;;;10.68;100.00;99985.41;6899080;20;7510;-42
2021/10/06 09:06:45;;;;;;;;;;;;;;;10.72;100.00;99989.66;6896541;20;18835;-42
2021/10/06 09:09:24;;;;;;;;;;;;;;;10.73;100.00;99986.84;6896764;20;7510;-42
2021/10/06 09:11:54;;;;;;;;;;;;;;;11.07;100.00;99995.66;6895392;20;19455;-41
2021/10/06 09:14:22;;;;;;;;;;;;;;;10.89;100.00;99992.22;6898354;20;15060;-42
2021/10/06 09:17:14;;;;;;;;;;;;;;;10.74;100.00;99985.94;6898255;20;14072;-43
2021/10/06 09:19:49;;;;;;;;;;;;;;;10.44;100.00;99990.34;6897543;20;16091;-42
2021/10/06 09:22:20;;;;;;;;;;;;;;;10.59;100.00;99992.16;6899324;20;7525;-43
2021/10/06 09:25:03;;;;;;;;;;;;;;;10.59;100.00;99991.31;6897790;20;7542;-42
2021/10/06 09:27:34;;;;;;;;;;;;;;;10.50;100.00;99984.63;6894956;20;7522;-43
2021/10/06 09:30:09;;;;;;;;;;;;;;;10.67;100.00;99983.69;6898295;20;19195;-43
2021/10/06 09:32:43;;;;;;;;;;;;;;;10.59;100.00;99989.47;6897540;20;7514;-43
2021/10/06 09:35:19;;;;;;;;;;;;;;;10.73;100.00;99986.84;6899080;20;7975;-47
2021/10/06 09:37:54;;;;;;;;;;;;;;;10.80;100.00;99991.91;6894883;20;14365;-42
2021/10/06 09:40:27;;;;;;;;;;;;;;;11.10;100.00;99995.47;6898849;20;17733;-42
2021/10/06 09:43:04;;;;;;;;;;;;;;;11.06;100.00;99993.94;6897467;20;18932;-43
2021/10/06 09:45:42;;;;;;;;;;;;;;;10.84;100.00;99996.97;6896708;20;7565;-42
2021/10/06 09:48:15;;;;;;;;;;;;;;;10.72;100.00;99990.50;6896385;20;17747;-42
2021/10/06 09:50:49;;;;;;;;;;;;;;;10.86;100.00;99996.91;6897146;20;7514;-42
2021/10/06 09:53:20;;;;;;;;;;;;;;;11.07;100.00;99995.66;6897797;20;17037;-42
2021/10/06 09:55:50;;;;;;;;;;;;;;;10.74;100.00;99985.94;6894033;20;18022;-42
2021/10/06 09:58:19;;;;;;;;;;;;;;;11.16;100.00;99987.06;6891907;20;7530;-42
2021/10/06 10:00:50;;;;;;;;;;;;;;;11.04;100.00;99985.09;6897559;20;15005;-42
2021/10/06 10:03:19;;;;;;;;;;;;;;;11.03;100.00;99994.09;6893013;20;17236;-43
2021/10/06 10:05:47;;;;;;;;;;;;;;;11.01;100.00;99993.34;6895040;20;11100;-42
2021/10/06 10:08:15;;;;;;;;;;;;;;;10.85;100.00;99989.78;6889792;20;19057;-42
2021/10/06 10:10:43;;;;;;;;;;;;;;;10.85;100.00;99987.09;6895039;20;18087;-41
2021/10/06 10:13:10;;;;;;;;;;;;;;;11.06;100.00;100001.09;6895808;20;17556;-42
2021/10/06 10:15:38;;;;;;;;;;;;;;;10.66;100.00;99990.84;6896678;20;7518;-42
2021/10/06 10:18:10;;;;;;;;;;;;;;;11.05;100.00;99981.44;6894722;20;16003;-43
2021/10/06 10:20:42;;;;;;;;;;;;;;;10.96;100.00;99987.38;6894705;20;19293;-41
2021/10/06 10:23:13;;;;;;;;;;;;;;;10.86;100.00;99991.53;6893394;20;7526;-43
2021/10/06 10:25:43;;;;;;;;;;;;;;;10.58;100.00;99987.72;6895449;20;7526;-42
2021/10/06 10:28:17;;;;;;;;;;;;;;;10.61;100.00;99981.31;6892455;20;11612;-43
2021/10/06 10:30:54;;;;;;;;;;;;;;;10.90;100.00;99985.00;6897683;20;19099;-42
2021/10/06 10:33:43;;;;;;;;;;;;;;;10.89;100.00;99986.84;6896348;20;7723;-42
2021/10/06 10:36:32;;;;;;;;;;;;;;;10.72;100.00;99979.78;6896444;20;18931;-43
2021/10/06 10:39:02;;;;;;;;;;;;;;;10.85;100.00;99979.03;6896858;20;7608;-46
2021/10/06 10:41:54;;;;;;;;;;;;;;;10.89;100.00;99984.16;6907116;20;8000;-42
2021/10/06 10:44:37;;;;;;;;;;;;;;;11.03;100.00;99982.47;6909646;20;8230;-44
2021/10/06 10:47:06;;;;;;;;;;;;;;;10.90;100.00;99987.69;6905602;20;19725;-42
2021/10/06 10:49:52;;;;;;;;;;;;;;;10.90;100.00;99987.69;6908591;20;7514;-42
2021/10/06 10:52:47;;;;;;;;;;;;;;;10.84;100.00;99993.44;6907054;20;19525;-42
2021/10/06 10:55:45;;;;;;;;;;;;;;;10.69;100.00;99996.06;6909244;20;7720;-41
2021/10/06 10:58:34;;;;;;;;;;;;;;;10.48;100.00;99998.16;6907978;20;16450;-42
2021/10/06 11:01:03;;;;;;;;;;;;;;;10.58;100.00;99997.63;6908127;20;20294;-42
2021/10/06 11:03:32;;;;;;;;;;;;;;;10.54;100.00;99994.25;6907146;20;17664;-42
2021/10/06 11:06:01;;;;;;;;;;;;;;;10.67;100.00;99992.59;6905689;20;16792;-42
2021/10/06 11:08:31;;;;;;;;;;;;;;;10.92;100.00;99999.22;6905068;20;22431;-42
2021/10/06 11:11:11;;;;;;;;;;;;;;;11.16;100.00;100008.56;6908148;20;18279;-43
2021/10/06 11:13:44;;;;;;;;;;;;;;;10.77;100.00;100003.69;6906481;20;19447;-42
2021/10/06 11:16:12;;;;;;;;;;;;;;;11.00;100.00;100010.41;6904376;20;7630;-42
2021/10/06 11:18:51;;;;;;;;;;;;;;;10.66;100.00;100001.59;6904746;20;19271;-42
2021/10/06 11:21:38;;;;;;;;;;;;;;;10.65;100.00;100007.91;6907042;20;7518;-43
2021/10/06 11:24:33;;;;;;;;;;;;;;;10.92;100.00;100007.28;6908600;20;8241;-43
2021/10/06 11:27:02;;;;;;;;;;;;;;;10.76;100.00;100005.47;6903776;20;7597;-44
2021/10/06 11:29:30;;;;;;;;;;;;;;;10.84;100.00;100004.19;6905779;20;19372;-44
2021/10/06 11:32:02;;;;;;;;;;;;;;;10.62;100.00;100005.41;6907380;20;20323;-43
2021/10/06 11:34:29;;;;;;;;;;;;;;;10.97;100.00;100005.19;6905676;20;18045;-43
2021/10/06 11:36:57;;;;;;;;;;;;;;;10.93;100.00;100011.72;6906389;20;7668;-45
2021/10/06 11:39:26;;;;;;;;;;;;;;;10.94;100.00;100010.75;6905975;20;17439;-44
2021/10/06 11:41:54;;;;;;;;;;;;;;;11.04;100.00;100003.91;6905901;20;7569;-43
2021/10/06 11:44:31;;;;;;;;;;;;;;;11.14;100.00;99997.03;6907824;20;7647;-42
2021/10/06 11:47:03;;;;;;;;;;;;;;;11.21;100.00;99998.38;6907292;20;9213;-41
2021/10/06 11:49:38;;;;;;;;;;;;;;;10.83;100.00;99997.09;6907228;20;8029;-43
2021/10/06 11:52:09;;;;;;;;;;;;;;;10.97;100.00;99997.16;6898279;20;7528;-43
2021/10/06 11:54:37;;;;;;;;;;;;;;;11.10;100.00;100005.34;6900206;20;17856;-44
2021/10/06 11:57:08;;;;;;;;;;;;;;;11.12;100.00;100004.31;6899059;20;7688;-43
2021/10/06 11:59:36;;;;;;;;;;;;;;;11.03;100.00;100001.28;6897297;20;7526;-43
2021/10/06 12:02:10;;;;;;;;;;;;;;;10.69;100.00;100006.81;6900493;20;7530;-44
2021/10/06 12:04:45;;;;;;;;;;;;;;;10.84;100.00;100006.88;6900731;20;7637;-43
2021/10/06 12:07:16;;;;;;;;;;;;;;;10.88;100.00;100006.59;6898864;20;14899;-43
2021/10/06 12:09:54;;;;;;;;;;;;;;;10.72;100.00;100006.63;6901408;20;8023;-43
2021/10/06 12:12:23;;;;;;;;;;;;;;;11.03;100.00;100003.97;6900834;20;7593;-43
2021/10/06 12:15:10;;;;;;;;;;;;;;;10.83;100.00;100005.16;6898189;20;19273;-43
2021/10/06 12:17:42;;;;;;;;;;;;;;;11.12;100.00;100004.31;6899053;20;7627;-41
2021/10/06 12:20:17;;;;;;;;;;;;;;;11.04;100.00;100011.09;6898196;20;16357;-45
2021/10/06 12:22:59;;;;;;;;;;;;;;;10.91;100.00;100005.56;6899298;20;7658;-43
2021/10/06 12:25:33;;;;;;;;;;;;;;;11.12;100.00;100007.00;6897725;20;7541;-45
2021/10/06 12:28:14;;;;;;;;;;;;;;;11.06;100.00;100004.69;6895713;20;17964;-43
2021/10/06 12:30:42;;;;;;;;;;;;;;;10.72;100.00;100000.41;6896869;20;7522;-43
2021/10/06 12:33:15;;;;;;;;;;;;;;;10.77;100.00;99996.50;6898860;20;7573;-43
2021/10/06 12:35:48;;;;;;;;;;;;;;;11.01;100.00;100001.41;6898872;20;7526;-42
2021/10/06 12:38:20;;;;;;;;;;;;;;;11.11;100.00;99991.84;6896697;20;17291;-43
2021/10/06 12:40:52;;;;;;;;;;;;;;;11.04;100.00;99986.91;6898437;20;7607;-43
2021/10/06 12:43:29;;;;;;;;;;;;;;;11.05;100.00;99983.25;6898413;20;19069;-43
2021/10/06 12:46:03;;;;;;;;;;;;;;;11.07;100.00;99966.09;6898695;20;18415;-43
2021/10/06 12:48:50;;;;;;;;;;;;;;;10.75;100.00;99963.47;6895289;20;19275;-43
2021/10/06 12:51:22;;;;;;;;;;;;;;;10.52;100.00;99961.25;6897802;20;7605;-43
2021/10/06 12:53:58;;;;;;;;;;;;;;;10.68;100.00;99967.47;6897597;20;18334;-43
2021/10/06 12:56:36;;;;;;;;;;;;;;;10.91;100.00;99966.13;6897981;20;19564;-42
2021/10/06 12:59:06;;;;;;;;;;;;;;;10.73;100.00;99956.47;6896282;20;20310;-44
2021/10/06 13:01:35;;;;;;;;;;;;;;;10.71;100.00;99953.84;6897281;20;16814;-42
2021/10/06 13:04:09;;;;;;;;;;;;;;;10.80;100.00;99952.47;6897030;20;19034;-43